Elgoibar, Spain
Current Conditions -  °F | °C
As of 7:00 AM on Thursday 29 Jan 2015 (Local Time) from LEBB Reporting Station
Few Clouds Few Clouds  
Wind Chill: 50°   Ceiling: Unl
Heat Index: 50°   Visibility: 6mi
Dew Point: 45°   Wind: 1mph
Humidity: 82%   Direction: NA
Pressure: 29.97"   Gusts: NA
Location:  43.22°N, 2.41°W
Report Text: LEBB 290600Z VRB01KT 9999 FEW040 10/07 Q1015 NOSIG
Loading
Personal Weather Stations






























Interactive Weather Map New forecast layout! Learn more

10-Day Weather Forecast

Advertisements
Track Severe Weather on mobile